createdAt,value
2019-04-11T00:00:06.876Z,4.87
2019-04-11T00:01:05.971Z,4.74
2019-04-11T00:02:06.715Z,4.90
2019-04-11T00:03:05.723Z,4.86
2019-04-11T00:04:06.103Z,4.78
2019-04-11T00:05:06.423Z,4.75
2019-04-11T00:06:05.779Z,4.78
2019-04-11T00:07:05.959Z,4.74
2019-04-11T00:08:06.033Z,4.78
2019-04-11T00:09:06.090Z,4.75
2019-04-11T00:10:06.291Z,4.84
2019-04-11T00:11:06.008Z,4.84
2019-04-11T00:13:17.289Z,4.86
2019-04-11T00:14:05.885Z,4.78
2019-04-11T00:15:06.429Z,4.74
2019-04-11T00:16:06.901Z,4.77
2019-04-11T00:17:05.923Z,4.71
2019-04-11T00:18:06.219Z,4.73
2019-04-11T00:19:07.209Z,4.71
2019-04-11T00:20:05.969Z,4.82
2019-04-11T00:21:06.755Z,4.71
2019-04-11T00:22:05.997Z,4.80
2019-04-11T00:23:06.175Z,4.82
2019-04-11T00:24:07.077Z,4.80
2019-04-11T00:25:07.036Z,4.71
2019-04-11T00:26:06.589Z,4.75
2019-04-11T00:27:06.075Z,4.75
2019-04-11T00:28:06.081Z,4.80
2019-04-11T00:29:06.095Z,4.70
2019-04-11T00:30:06.113Z,4.74
2019-04-11T00:31:06.405Z,4.74
2019-04-11T00:32:08.037Z,4.78
2019-04-11T00:33:06.161Z,4.71
2019-04-11T00:34:06.840Z,4.82
2019-04-11T00:35:07.178Z,4.70
2019-04-11T00:36:06.334Z,4.68
2019-04-11T00:37:06.212Z,4.70
2019-04-11T00:38:06.224Z,4.68
2019-04-11T00:39:06.237Z,4.77
2019-04-11T00:40:06.258Z,4.68
2019-04-11T00:41:06.265Z,4.66
2019-04-11T00:42:06.294Z,4.66
2019-04-11T00:43:07.322Z,4.75
2019-04-11T00:44:06.428Z,4.74
2019-04-11T00:45:07.447Z,4.62
2019-04-11T00:46:06.339Z,4.63
2019-04-11T00:47:06.945Z,4.74
2019-04-11T00:48:06.368Z,4.66
2019-04-11T00:49:06.383Z,4.68
2019-04-11T00:50:07.355Z,4.63
2019-04-11T00:51:07.611Z,4.63
2019-04-11T00:52:06.598Z,4.63
2019-04-11T00:53:06.576Z,4.74
2019-04-11T00:54:06.693Z,4.73
2019-04-11T00:55:07.157Z,4.68
2019-04-11T00:56:06.485Z,4.70
2019-04-11T00:57:06.613Z,4.66
2019-04-11T00:58:07.494Z,4.67
2019-04-11T00:59:06.525Z,4.63
2019-04-11T01:00:06.931Z,4.67
2019-04-11T01:01:07.222Z,4.66
2019-04-11T01:02:07.280Z,4.68
2019-04-11T01:03:06.581Z,4.70
2019-04-11T01:04:07.591Z,4.70
2019-04-11T01:05:07.546Z,4.66
2019-04-11T01:06:06.774Z,4.60
2019-04-11T01:07:06.861Z,4.59
2019-04-11T01:08:07.268Z,4.55
2019-04-11T01:09:06.673Z,4.55
2019-04-11T01:10:06.749Z,4.49
2019-04-11T01:11:07.760Z,4.45
2019-04-11T01:12:06.714Z,4.50
2019-04-11T01:13:07.152Z,4.59
2019-04-11T01:14:07.756Z,4.50
2019-04-11T01:15:07.054Z,4.45
2019-04-11T01:16:07.115Z,4.40
2019-04-11T01:17:07.837Z,4.45
2019-04-11T01:18:06.794Z,4.48
2019-04-11T01:19:06.808Z,4.38
2019-04-11T01:20:07.039Z,4.38
2019-04-11T01:21:06.835Z,4.38
2019-04-11T01:22:07.733Z,4.20
2019-04-11T01:23:06.921Z,4.26
2019-04-11T01:24:07.193Z,4.26
2019-04-11T01:25:06.893Z,4.23
2019-04-11T01:26:06.909Z,4.23
2019-04-11T01:27:07.772Z,4.22
2019-04-11T01:28:06.936Z,4.16
2019-04-11T01:29:07.210Z,4.06
2019-04-11T01:30:08.137Z,4.10
2019-04-11T01:31:06.979Z,4.05
2019-04-11T01:32:06.992Z,3.99
2019-04-11T01:33:07.006Z,4.02
2019-04-11T01:34:07.018Z,4.04
2019-04-11T01:35:07.035Z,4.14
2019-04-11T01:36:07.086Z,4.10
2019-04-11T01:37:07.274Z,4.02
2019-04-11T01:38:08.193Z,4.06
2019-04-11T01:39:07.096Z,4.14
2019-04-11T01:40:07.759Z,4.10
2019-04-11T01:41:07.121Z,4.05
2019-04-11T01:42:07.133Z,4.05
2019-04-11T01:43:08.108Z,4.01
2019-04-11T01:44:08.618Z,4.04
2019-04-11T01:45:07.506Z,4.10
2019-04-11T01:46:07.768Z,4.05
2019-04-11T01:47:07.202Z,3.96
2019-04-11T01:48:07.219Z,3.92
2019-04-11T01:49:08.092Z,3.96
2019-04-11T01:50:08.248Z,3.94
2019-04-11T01:51:07.556Z,4.02
2019-04-11T01:52:07.279Z,3.96
2019-04-11T01:53:07.287Z,4.01
2019-04-11T01:54:07.774Z,4.02
2019-04-11T01:55:08.266Z,3.99
2019-04-11T01:56:07.329Z,3.99
2019-04-11T01:57:07.581Z,4.01
2019-04-11T01:58:07.360Z,4.01
2019-04-11T01:59:07.372Z,3.99
2019-04-11T02:00:08.063Z,3.98
2019-04-11T02:01:08.368Z,3.84
2019-04-11T02:02:07.514Z,3.81
2019-04-11T02:03:08.756Z,3.92
2019-04-11T02:04:07.750Z,3.91
2019-04-11T02:05:08.360Z,3.84
2019-04-11T02:06:07.672Z,3.84
2019-04-11T02:07:07.483Z,3.87
2019-04-11T02:08:07.499Z,3.77
2019-04-11T02:09:08.095Z,3.77
2019-04-11T02:10:08.443Z,3.80
2019-04-11T02:11:08.186Z,3.68
2019-04-11T02:12:07.554Z,3.68
2019-04-11T02:13:07.845Z,3.73
2019-04-11T02:14:14.101Z,3.70
2019-04-11T02:15:08.300Z,3.68
2019-04-11T02:16:08.495Z,3.78
2019-04-11T02:17:08.548Z,3.83
2019-04-11T02:18:07.669Z,3.77
2019-04-11T02:19:07.961Z,3.68
2019-04-11T02:20:07.667Z,3.70
2019-04-11T02:21:07.678Z,3.70
2019-04-11T02:22:08.659Z,3.73
2019-04-11T02:23:07.708Z,3.53
2019-04-11T02:24:07.882Z,3.69
2019-04-11T02:25:08.122Z,3.68
2019-04-11T02:26:07.751Z,3.62
2019-04-11T02:27:08.555Z,3.58
2019-04-11T02:28:08.565Z,3.58
2019-04-11T02:29:08.883Z,3.50
2019-04-11T02:30:08.800Z,3.58
2019-04-11T02:31:10.158Z,3.60
2019-04-11T02:32:09.687Z,3.58
2019-04-11T02:33:10.036Z,3.50
2019-04-11T02:34:08.677Z,3.47
2019-04-11T02:35:08.681Z,3.47
2019-04-11T02:36:09.537Z,3.48
2019-04-11T02:37:09.287Z,3.48
2019-04-11T02:38:09.537Z,3.47
2019-04-11T02:39:12.860Z,3.48
2019-04-11T02:40:08.147Z,3.47
2019-04-11T02:41:08.676Z,3.45
2019-04-11T02:42:10.432Z,3.47
2019-04-11T02:43:09.867Z,3.53
2019-04-11T02:44:27.064Z,3.44
2019-04-11T02:45:23.083Z,3.44
2019-04-11T02:46:17.433Z,3.32
2019-04-11T02:47:11.779Z,3.36
2019-04-11T02:48:10.750Z,3.41
2019-04-11T02:49:08.662Z,3.45
2019-04-11T02:50:08.995Z,3.55
2019-04-11T02:51:08.095Z,3.41
2019-04-11T02:52:09.539Z,3.40
2019-04-11T02:53:09.479Z,3.40
2019-04-11T02:54:08.135Z,3.41
2019-04-11T02:55:10.280Z,3.36
2019-04-11T02:56:10.732Z,3.34
2019-04-11T02:57:09.855Z,3.32
2019-04-11T02:58:08.200Z,3.40
2019-04-11T02:59:09.041Z,3.34
2019-04-11T03:00:08.978Z,3.40
2019-04-11T03:01:10.640Z,3.40
2019-04-11T03:02:09.039Z,3.34
2019-04-11T03:03:10.115Z,3.31
2019-04-11T03:04:08.420Z,3.32
2019-04-11T03:05:10.084Z,3.31
2019-04-11T03:06:09.288Z,3.32
2019-04-11T03:07:09.837Z,3.26
2019-04-11T03:08:12.185Z,3.32
2019-04-11T03:09:08.358Z,3.29
2019-04-11T03:10:11.324Z,3.21
2019-04-11T03:11:10.690Z,3.22
2019-04-11T03:12:09.437Z,3.25
2019-04-11T03:13:08.624Z,3.22
2019-04-11T03:14:09.822Z,3.34
2019-04-11T03:15:24.374Z,3.18
2019-04-11T03:16:24.711Z,3.25
2019-04-11T03:17:16.951Z,3.23
2019-04-11T03:18:10.135Z,3.26
2019-04-11T03:19:22.534Z,3.26
2019-04-11T03:20:21.053Z,3.22
2019-04-11T03:21:13.679Z,3.19
2019-04-11T03:22:09.827Z,3.21
2019-04-11T03:23:10.854Z,3.18
2019-04-11T03:24:10.909Z,3.26
2019-04-11T03:25:08.715Z,3.14
2019-04-11T03:26:10.204Z,3.16
2019-04-11T03:27:09.900Z,3.18
2019-04-11T03:28:14.094Z,3.05
2019-04-11T03:29:09.167Z,3.08
2019-04-11T03:30:15.020Z,3.14
2019-04-11T03:31:42.111Z,3.13
2019-04-11T03:32:49.399Z,3.21
2019-04-11T03:36:00.100Z,3.11
2019-04-11T03:36:59.981Z,3.00
2019-04-11T03:37:39.313Z,3.05
2019-04-11T03:38:33.081Z,3.03
2019-04-11T03:39:29.196Z,2.97
2019-04-11T03:40:29.127Z,3.00
2019-04-11T03:41:25.329Z,3.05
2019-04-11T03:42:21.654Z,3.07
2019-04-11T03:43:23.076Z,3.08
2019-04-11T03:44:16.952Z,3.13
2019-04-11T03:45:34.735Z,3.00
2019-04-11T03:46:25.070Z,3.03
2019-04-11T03:47:25.359Z,2.95
2019-04-11T03:48:23.633Z,3.05
2019-04-11T03:49:20.663Z,3.05
2019-04-11T03:50:15.624Z,2.90
2019-04-11T03:51:10.639Z,2.86
2019-04-11T03:52:10.602Z,2.87
2019-04-11T03:53:11.409Z,3.03
2019-04-11T03:54:09.831Z,3.03
2019-04-11T03:55:09.341Z,3.01
2019-04-11T03:56:09.771Z,2.95
2019-04-11T03:57:09.732Z,2.92
2019-04-11T03:58:09.168Z,2.93
2019-04-11T03:59:13.670Z,2.92
2019-04-11T04:00:10.299Z,2.93
2019-04-11T04:01:11.535Z,3.03
2019-04-11T04:02:10.787Z,3.00
2019-04-11T04:03:11.152Z,3.01
2019-04-11T04:04:11.101Z,2.98
2019-04-11T04:05:10.618Z,3.00
2019-04-11T04:06:09.451Z,2.89
2019-04-11T04:07:12.305Z,2.93
2019-04-11T04:08:10.752Z,3.00
2019-04-11T04:09:10.715Z,2.92
2019-04-11T04:10:13.007Z,2.95
2019-04-11T04:11:09.236Z,2.87
2019-04-11T04:12:09.998Z,2.92
2019-04-11T04:13:14.206Z,3.01
2019-04-11T04:14:10.444Z,3.04
2019-04-11T04:15:10.757Z,2.98
2019-04-11T04:16:19.818Z,2.98
2019-04-11T04:17:11.025Z,3.07
2019-04-11T04:18:10.199Z,3.04
2019-04-11T04:19:11.703Z,3.00
2019-04-11T04:20:10.935Z,3.05
2019-04-11T04:21:10.840Z,2.93
2019-04-11T04:22:09.327Z,3.01
2019-04-11T04:23:10.230Z,2.90
2019-04-11T04:24:10.563Z,2.92
2019-04-11T04:25:10.276Z,2.83
2019-04-11T04:26:11.570Z,2.86
2019-04-11T04:27:10.062Z,2.85
2019-04-11T04:28:10.133Z,2.79
2019-04-11T04:29:09.423Z,2.85
2019-04-11T04:30:10.991Z,2.92
2019-04-11T04:31:11.200Z,2.89
2019-04-11T04:32:09.501Z,2.82
2019-04-11T04:33:10.876Z,2.86
2019-04-11T04:34:09.644Z,2.90
2019-04-11T04:35:14.454Z,2.85
2019-04-11T04:36:11.067Z,2.82
2019-04-11T04:37:09.531Z,2.92
2019-04-11T04:38:11.289Z,2.85
2019-04-11T04:39:10.649Z,2.86
2019-04-11T04:40:26.913Z,2.85
2019-04-11T04:41:19.898Z,2.75
2019-04-11T04:42:21.255Z,2.72
2019-04-11T04:43:11.771Z,2.69
2019-04-11T04:44:09.951Z,2.71
2019-04-11T04:45:11.810Z,2.69
2019-04-11T04:46:26.262Z,2.67
2019-04-11T04:47:19.290Z,2.68
2019-04-11T04:48:13.717Z,2.67
2019-04-11T04:49:11.043Z,2.75
2019-04-11T04:50:11.053Z,2.72
2019-04-11T04:51:11.481Z,2.80
2019-04-11T04:52:11.899Z,2.82
2019-04-11T04:53:09.872Z,2.75
2019-04-11T04:54:16.369Z,2.74
2019-04-11T04:55:10.639Z,2.80
2019-04-11T04:56:11.090Z,2.77
2019-04-11T04:57:12.963Z,2.79
2019-04-11T04:58:09.809Z,2.79
2019-04-11T04:59:11.970Z,2.79
2019-04-11T05:00:11.584Z,2.83
2019-04-11T05:01:10.076Z,2.87
2019-04-11T05:02:11.006Z,2.86
2019-04-11T05:03:10.397Z,2.89
2019-04-11T05:04:11.336Z,2.83
2019-04-11T05:05:11.319Z,2.98
2019-04-11T05:06:10.158Z,2.90
2019-04-11T05:07:11.630Z,2.93
2019-04-11T05:08:10.729Z,2.98
2019-04-11T05:09:10.707Z,3.00
2019-04-11T05:10:11.255Z,3.01
2019-04-11T05:11:10.156Z,3.00
2019-04-11T05:12:10.017Z,2.82
2019-04-11T05:13:10.083Z,2.89
2019-04-11T05:14:10.491Z,2.75
2019-04-11T05:15:10.176Z,2.79
2019-04-11T05:16:17.277Z,2.80
2019-04-11T05:17:10.754Z,2.82
2019-04-11T05:18:11.508Z,2.82
2019-04-11T05:19:10.088Z,2.77
2019-04-11T05:20:10.102Z,2.89
2019-04-11T05:21:10.757Z,2.89
2019-04-11T05:22:10.580Z,3.00
2019-04-11T05:23:10.142Z,2.87
2019-04-11T05:24:10.389Z,3.04
2019-04-11T05:25:10.613Z,3.05
2019-04-11T05:26:10.954Z,3.13
2019-04-11T05:27:10.482Z,3.08
2019-04-11T05:28:10.210Z,3.08
2019-04-11T05:29:11.150Z,3.08
2019-04-11T05:30:11.247Z,3.01
2019-04-11T05:31:10.260Z,2.97
2019-04-11T05:32:11.272Z,3.03
2019-04-11T05:33:11.548Z,3.18
2019-04-11T05:34:10.298Z,3.05
2019-04-11T05:35:11.070Z,3.14
2019-04-11T05:36:10.317Z,3.18
2019-04-11T05:37:11.086Z,3.13
2019-04-11T05:38:10.448Z,3.22
2019-04-11T05:39:10.703Z,3.16
2019-04-11T05:40:10.374Z,3.23
2019-04-11T05:41:12.280Z,3.18
2019-04-11T05:42:11.269Z,3.25
2019-04-11T05:43:11.449Z,3.22
2019-04-11T05:44:10.998Z,3.29
2019-04-11T05:45:16.917Z,3.32
2019-04-11T05:46:23.939Z,3.22
2019-04-11T05:47:14.664Z,3.16
2019-04-11T05:48:11.533Z,3.16
2019-04-11T05:49:11.350Z,3.23
2019-04-11T05:50:13.253Z,3.19
2019-04-11T05:51:10.941Z,3.07
2019-04-11T05:52:10.540Z,3.16
2019-04-11T05:53:10.552Z,3.18
2019-04-11T05:54:10.765Z,3.34
2019-04-11T05:55:12.347Z,3.34
2019-04-11T05:56:11.243Z,3.34
2019-04-11T05:57:11.257Z,3.36
2019-04-11T05:58:14.085Z,3.37
2019-04-11T05:59:14.668Z,3.53
2019-04-11T06:00:11.745Z,3.44
2019-04-11T06:01:12.743Z,3.31
2019-04-11T06:02:11.066Z,3.41
2019-04-11T06:03:10.690Z,3.34
2019-04-11T06:04:15.190Z,3.41
2019-04-11T06:05:11.060Z,3.50
2019-04-11T06:06:10.861Z,3.55
2019-04-11T06:07:11.917Z,3.68
2019-04-11T06:08:12.447Z,3.60
2019-04-11T06:09:12.055Z,3.70
2019-04-11T06:10:12.817Z,3.66
2019-04-11T06:11:14.437Z,3.68
2019-04-11T06:12:11.656Z,3.66
2019-04-11T06:13:12.073Z,3.59
2019-04-11T06:14:11.112Z,3.53
2019-04-11T06:15:11.604Z,3.56
2019-04-11T06:16:10.872Z,3.44
2019-04-11T06:17:11.392Z,3.56
2019-04-11T06:18:22.837Z,3.56
2019-04-11T06:19:10.905Z,3.68
2019-04-11T06:20:11.578Z,3.55
2019-04-11T06:21:11.687Z,3.48
2019-04-11T06:22:10.955Z,3.68
2019-04-11T06:23:10.959Z,3.68
2019-04-11T06:24:12.033Z,3.77
2019-04-11T06:25:11.226Z,3.73
2019-04-11T06:26:11.027Z,3.70
2019-04-11T06:27:12.588Z,3.74
2019-04-11T06:28:11.737Z,3.83
2019-04-11T06:29:17.415Z,3.81
2019-04-11T06:30:12.143Z,3.84
2019-04-11T06:31:11.069Z,3.94
2019-04-11T06:32:11.765Z,3.96
2019-04-11T06:33:12.259Z,3.99
2019-04-11T06:34:11.397Z,3.91
2019-04-11T06:35:11.577Z,3.96
2019-04-11T06:36:11.817Z,4.04
2019-04-11T06:37:11.795Z,3.99
2019-04-11T06:38:11.166Z,4.01
2019-04-11T06:39:12.301Z,4.01
2019-04-11T06:40:11.762Z,4.20
2019-04-11T06:41:12.429Z,4.22
2019-04-11T06:42:11.223Z,4.19
2019-04-11T06:43:11.914Z,4.16
2019-04-11T06:44:12.271Z,4.14
2019-04-11T06:45:11.336Z,4.17
2019-04-11T06:46:11.282Z,4.28
2019-04-11T06:47:12.407Z,4.23
2019-04-11T06:48:11.597Z,4.30
2019-04-11T06:49:12.006Z,4.37
2019-04-11T06:50:11.344Z,4.35
2019-04-11T06:51:11.585Z,4.40
2019-04-11T06:52:11.397Z,4.41
2019-04-11T06:53:11.499Z,4.40
2019-04-11T06:54:11.392Z,4.44
2019-04-11T06:55:11.406Z,4.40
2019-04-11T06:56:12.445Z,4.50
2019-04-11T06:57:11.786Z,4.55
2019-04-11T06:58:11.449Z,4.59
2019-04-11T06:59:12.212Z,4.63
2019-04-11T07:00:12.542Z,4.71
2019-04-11T07:01:11.969Z,4.62
2019-04-11T07:02:17.949Z,4.53
2019-04-11T07:03:19.848Z,4.71
2019-04-11T07:04:11.536Z,4.62
2019-04-11T07:05:11.547Z,4.84
2019-04-11T07:06:11.562Z,4.93
2019-04-11T07:07:12.805Z,4.92
2019-04-11T07:08:11.704Z,4.84
2019-04-11T07:09:12.466Z,4.94
2019-04-11T07:10:11.770Z,5.02
2019-04-11T07:11:11.633Z,5.07
2019-04-11T07:12:11.748Z,4.99
2019-04-11T07:13:12.120Z,5.12
2019-04-11T07:14:12.488Z,5.20
2019-04-11T07:15:12.214Z,5.11
2019-04-11T07:16:11.702Z,5.15
2019-04-11T07:17:12.673Z,5.00
2019-04-11T07:18:12.007Z,5.15
2019-04-11T07:19:11.815Z,5.15
2019-04-11T07:20:12.953Z,5.29
2019-04-11T07:21:11.774Z,5.44
2019-04-11T07:22:11.792Z,5.51
2019-04-11T07:23:11.802Z,5.43
2019-04-11T07:24:11.852Z,5.44
2019-04-11T07:25:12.451Z,5.51
2019-04-11T07:26:12.171Z,5.44
2019-04-11T07:27:11.863Z,5.39
2019-04-11T07:28:11.878Z,5.39
2019-04-11T07:29:13.005Z,5.46
2019-04-11T07:30:11.909Z,5.51
2019-04-11T07:31:12.809Z,5.59
2019-04-11T07:32:11.941Z,5.61
2019-04-11T07:33:12.752Z,5.82
2019-04-11T07:34:11.966Z,5.86
2019-04-11T07:35:12.967Z,5.86
2019-04-11T07:36:12.462Z,5.93
2019-04-11T07:37:12.639Z,5.94
2019-04-11T07:38:12.030Z,6.09
2019-04-11T07:39:12.855Z,6.16
2019-04-11T07:40:13.115Z,6.11
2019-04-11T07:41:12.763Z,6.02
2019-04-11T07:42:13.723Z,6.14
2019-04-11T07:43:13.882Z,6.05
2019-04-11T07:44:13.119Z,6.11
2019-04-11T07:45:14.109Z,6.22
2019-04-11T07:46:12.678Z,6.20
2019-04-11T07:47:17.331Z,6.24
2019-04-11T07:48:12.860Z,6.39
2019-04-11T07:49:12.204Z,6.41
2019-04-11T07:50:12.292Z,6.45
2019-04-11T07:51:13.188Z,6.39
2019-04-11T07:52:12.230Z,6.48
2019-04-11T07:53:12.867Z,6.46
2019-04-11T07:54:13.625Z,6.44
2019-04-11T07:55:13.144Z,6.41
2019-04-11T07:56:12.298Z,6.44
2019-04-11T07:57:12.933Z,6.48
2019-04-11T07:58:13.158Z,6.52
2019-04-11T07:59:12.909Z,6.56
2019-04-11T08:00:12.792Z,6.56
2019-04-11T08:01:12.674Z,6.62
2019-04-11T08:02:12.465Z,6.75
2019-04-11T08:03:12.409Z,6.67
2019-04-11T08:04:12.712Z,6.82
2019-04-11T08:05:13.238Z,6.79
2019-04-11T08:06:13.310Z,6.93
2019-04-11T08:07:13.170Z,6.95
2019-04-11T08:08:13.386Z,6.99
2019-04-11T08:09:13.170Z,7.06
2019-04-11T08:10:12.543Z,7.21
2019-04-11T08:11:13.566Z,7.20
2019-04-11T08:12:12.883Z,7.21
2019-04-11T08:13:12.551Z,7.32
2019-04-11T08:14:12.621Z,7.24
2019-04-11T08:15:13.339Z,7.35
2019-04-11T08:16:12.646Z,7.40
2019-04-11T08:17:12.622Z,7.40
2019-04-11T08:18:12.630Z,7.48
2019-04-11T08:19:13.146Z,7.48
2019-04-11T08:20:13.175Z,7.67
2019-04-11T08:21:12.676Z,7.63
2019-04-11T08:22:12.693Z,7.76
2019-04-11T08:23:13.723Z,7.53
2019-04-11T08:24:12.723Z,7.47
2019-04-11T08:25:13.290Z,7.47
2019-04-11T08:26:13.663Z,7.38
2019-04-11T08:27:13.425Z,7.51
2019-04-11T08:28:14.089Z,7.69
2019-04-11T08:29:15.569Z,7.73
2019-04-11T08:30:12.859Z,7.60
2019-04-11T08:31:13.260Z,7.61
2019-04-11T08:32:13.690Z,7.73
2019-04-11T08:33:14.065Z,7.70
2019-04-11T08:34:13.249Z,7.66
2019-04-11T08:35:12.898Z,7.72
2019-04-11T08:36:13.686Z,7.87
2019-04-11T08:37:13.643Z,7.82
2019-04-11T08:38:12.989Z,7.69
2019-04-11T08:39:14.267Z,7.73
2019-04-11T08:40:13.473Z,7.85
2019-04-11T08:41:13.522Z,7.98
2019-04-11T08:42:13.006Z,8.03
2019-04-11T08:43:13.022Z,8.12
2019-04-11T08:44:13.039Z,8.26
2019-04-11T08:45:13.055Z,8.42
2019-04-11T08:46:13.070Z,8.55
2019-04-11T08:47:13.089Z,8.76
2019-04-11T08:48:13.102Z,8.84
2019-04-11T08:49:13.184Z,8.79
2019-04-11T08:50:14.282Z,8.92
2019-04-11T08:51:13.149Z,9.10
2019-04-11T08:52:13.900Z,8.99
2019-04-11T08:53:13.188Z,8.97
2019-04-11T08:54:13.327Z,9.14
2019-04-11T08:55:15.982Z,9.18
2019-04-11T08:56:13.232Z,8.92
2019-04-11T08:57:13.752Z,8.70
2019-04-11T08:58:14.149Z,8.82
2019-04-11T08:59:13.532Z,8.91
2019-04-11T09:00:13.750Z,8.85
2019-04-11T09:01:13.782Z,8.91
2019-04-11T09:02:13.332Z,8.99
2019-04-11T09:03:13.527Z,8.84
2019-04-11T09:04:14.978Z,8.69
2019-04-11T09:05:16.958Z,8.37
2019-04-11T09:06:14.571Z,8.31
2019-04-11T09:07:13.593Z,8.42
2019-04-11T09:08:14.211Z,8.56
2019-04-11T09:09:13.449Z,8.58
2019-04-11T09:10:13.570Z,8.60
2019-04-11T09:11:14.821Z,8.56
2019-04-11T09:12:14.182Z,8.51
2019-04-11T09:13:13.514Z,8.52
2019-04-11T09:14:13.761Z,8.69
2019-04-11T09:15:14.526Z,8.79
2019-04-11T09:16:13.564Z,8.99
2019-04-11T09:17:14.360Z,9.21
2019-04-11T09:18:15.059Z,9.26
2019-04-11T09:19:14.660Z,9.40
2019-04-11T09:20:13.705Z,9.19
2019-04-11T09:21:13.646Z,8.99
2019-04-11T09:22:13.666Z,9.21
2019-04-11T09:23:13.682Z,8.89
2019-04-11T09:24:15.263Z,9.06
2019-04-11T09:25:14.804Z,9.23
2019-04-11T09:26:13.989Z,9.11
2019-04-11T09:27:14.320Z,8.92
2019-04-11T09:28:13.766Z,8.82
2019-04-11T09:29:13.784Z,8.85
2019-04-11T09:30:15.680Z,9.04
2019-04-11T09:31:15.296Z,9.37
2019-04-11T09:32:13.882Z,9.48
2019-04-11T09:33:14.955Z,9.34
2019-04-11T09:34:13.864Z,9.37
2019-04-11T09:35:14.386Z,9.26
2019-04-11T09:36:13.908Z,9.34
2019-04-11T09:37:16.019Z,9.46
2019-04-11T09:38:14.016Z,9.66
2019-04-11T09:39:15.063Z,9.86
2019-04-11T09:40:15.260Z,9.65
2019-04-11T09:41:14.374Z,9.47
2019-04-11T09:42:14.005Z,9.29
2019-04-11T09:43:14.020Z,9.73
2019-04-11T09:44:14.856Z,10.04
2019-04-11T09:45:14.132Z,10.17
2019-04-11T09:46:14.469Z,10.33
2019-04-11T09:47:14.092Z,10.41
2019-04-11T09:48:17.331Z,10.42
2019-04-11T09:49:15.017Z,10.60
2019-04-11T09:50:14.142Z,10.64
2019-04-11T09:51:14.158Z,10.64
2019-04-11T09:52:14.313Z,10.69
2019-04-11T09:53:14.237Z,10.67
2019-04-11T09:54:15.469Z,10.37
2019-04-11T09:55:15.001Z,9.89
2019-04-11T09:56:15.180Z,9.68
2019-04-11T09:57:14.264Z,9.92
2019-04-11T09:58:15.235Z,10.07
2019-04-11T09:59:14.405Z,10.35
2019-04-11T10:00:14.451Z,10.40
2019-04-11T10:01:14.339Z,9.98
2019-04-11T10:02:14.587Z,9.92
2019-04-11T10:03:15.306Z,9.86
2019-04-11T10:04:14.450Z,9.68
2019-04-11T10:05:14.405Z,9.84
2019-04-11T10:06:15.776Z,9.74
2019-04-11T10:07:14.442Z,9.65
2019-04-11T10:08:14.875Z,9.86
2019-04-11T10:09:15.636Z,9.94
2019-04-11T10:10:14.873Z,9.82
2019-04-11T10:11:15.560Z,9.58
2019-04-11T10:12:15.808Z,9.91
2019-04-11T10:13:14.547Z,9.87
2019-04-11T10:14:15.572Z,9.97
2019-04-11T10:15:15.460Z,10.22
2019-04-11T10:16:15.807Z,10.30
2019-04-11T10:17:14.897Z,10.33
2019-04-11T10:18:22.869Z,10.38
2019-04-11T10:19:15.685Z,10.40
2019-04-11T10:20:14.698Z,10.54
2019-04-11T10:21:15.236Z,10.68
2019-04-11T10:22:15.101Z,10.63
2019-04-11T10:23:14.723Z,10.40
2019-04-11T10:24:18.933Z,10.28
2019-04-11T10:25:14.934Z,10.38
2019-04-11T10:26:15.941Z,10.61
2019-04-11T10:27:14.810Z,10.60
2019-04-11T10:28:15.422Z,10.68
2019-04-11T10:29:14.973Z,10.82
2019-04-11T10:30:15.225Z,11.00
2019-04-11T10:31:14.868Z,11.18
2019-04-11T10:32:14.998Z,11.26
2019-04-11T10:33:15.038Z,11.25
2019-04-11T10:34:14.923Z,11.27
2019-04-11T10:35:17.530Z,10.96
2019-04-11T10:36:14.968Z,10.82
2019-04-11T10:37:15.822Z,10.93
2019-04-11T10:38:16.180Z,10.94
2019-04-11T10:39:15.355Z,10.87
2019-04-11T10:40:15.587Z,10.54
2019-04-11T10:41:15.055Z,10.40
2019-04-11T10:42:15.074Z,10.26
2019-04-11T10:43:16.108Z,10.19
2019-04-11T10:44:15.945Z,10.28
2019-04-11T10:45:15.300Z,9.91
2019-04-11T10:46:15.424Z,9.73
2019-04-11T10:47:16.451Z,9.97
2019-04-11T10:48:15.889Z,10.12
2019-04-11T10:49:15.203Z,10.09
2019-04-11T10:50:15.547Z,10.20
2019-04-11T10:51:15.483Z,10.17
2019-04-11T10:52:15.247Z,10.30
2019-04-11T10:53:16.676Z,10.31
2019-04-11T10:54:15.593Z,10.35
2019-04-11T10:55:15.706Z,10.31
2019-04-11T10:56:15.996Z,10.31
2019-04-11T10:57:15.962Z,10.48
2019-04-11T10:58:16.274Z,10.67
2019-04-11T10:59:15.504Z,10.79
2019-04-11T11:00:15.635Z,10.93
2019-04-11T11:01:15.750Z,11.11
2019-04-11T11:02:15.440Z,11.15
2019-04-11T11:03:15.454Z,11.15
2019-04-11T11:04:15.838Z,11.33
2019-04-11T11:05:17.956Z,11.55
2019-04-11T11:06:15.595Z,11.72
2019-04-11T11:07:16.203Z,10.92
2019-04-11T11:08:15.533Z,10.72
2019-04-11T11:09:15.551Z,10.59
2019-04-11T11:10:15.571Z,10.54
2019-04-11T11:11:16.439Z,10.64
2019-04-11T11:12:16.881Z,10.67
2019-04-11T11:13:16.026Z,10.60
2019-04-11T11:14:15.644Z,10.72
2019-04-11T11:15:15.705Z,10.93
2019-04-11T11:16:15.960Z,11.23
2019-04-11T11:17:37.337Z,11.19
2019-04-11T11:18:49.123Z,10.94
2019-04-11T11:19:36.695Z,10.90
2019-04-11T11:20:22.313Z,11.05
2019-04-11T11:21:15.772Z,11.14
2019-04-11T11:22:16.726Z,11.00
2019-04-11T11:23:16.145Z,10.87
2019-04-11T11:24:15.832Z,10.68
2019-04-11T11:25:18.112Z,10.44
2019-04-11T11:26:20.874Z,10.49
2019-04-11T11:27:15.986Z,10.74
2019-04-11T11:28:16.000Z,10.78
2019-04-11T11:29:17.491Z,10.92
2019-04-11T11:30:15.999Z,10.71
2019-04-11T11:31:16.043Z,10.67
2019-04-11T11:32:16.762Z,10.76
2019-04-11T11:33:16.107Z,10.72
2019-04-11T11:34:19.810Z,10.93
2019-04-11T11:35:16.029Z,10.89
2019-04-11T11:36:17.232Z,10.61
2019-04-11T11:37:17.423Z,10.41
2019-04-11T11:38:16.082Z,10.41
2019-04-11T11:39:17.409Z,10.37
2019-04-11T11:40:17.988Z,10.74
2019-04-11T11:41:16.352Z,10.71
2019-04-11T11:42:16.152Z,10.53
2019-04-11T11:43:16.933Z,10.38
2019-04-11T11:44:16.189Z,10.31
2019-04-11T11:45:17.290Z,10.34
2019-04-11T11:46:17.513Z,10.44
2019-04-11T11:47:17.380Z,10.38
2019-04-11T11:48:19.313Z,10.60
2019-04-11T11:49:29.594Z,10.81
2019-04-11T11:50:19.850Z,10.90
2019-04-11T11:51:17.250Z,10.89
2019-04-11T11:52:17.205Z,11.04
2019-04-11T11:53:16.470Z,11.02
2019-04-11T11:54:17.577Z,11.33
2019-04-11T11:55:18.981Z,11.48
2019-04-11T11:56:16.404Z,11.52
2019-04-11T11:57:16.422Z,11.51
2019-04-11T11:58:17.345Z,11.45
2019-04-11T11:59:16.966Z,11.12
2019-04-11T12:00:16.905Z,10.92
2019-04-11T12:01:17.679Z,10.92
2019-04-11T12:02:18.254Z,10.78
2019-04-11T12:03:17.028Z,10.72
2019-04-11T12:04:16.937Z,10.75
2019-04-11T12:05:18.478Z,10.76
2019-04-11T12:06:19.786Z,10.49
2019-04-11T12:07:16.809Z,10.57
2019-04-11T12:08:18.180Z,10.64
2019-04-11T12:09:16.648Z,10.71
2019-04-11T12:10:17.391Z,10.64
2019-04-11T12:11:17.739Z,10.59
2019-04-11T12:12:17.670Z,10.54
2019-04-11T12:13:17.186Z,10.72
2019-04-11T12:14:17.976Z,10.76
2019-04-11T12:15:20.213Z,10.76
2019-04-11T12:16:20.701Z,10.57
2019-04-11T12:17:16.782Z,10.46
2019-04-11T12:18:18.620Z,10.38
2019-04-11T12:19:19.956Z,10.54
2019-04-11T12:20:16.921Z,10.69
2019-04-11T12:21:23.623Z,10.78
2019-04-11T12:22:18.012Z,10.92
2019-04-11T12:23:17.163Z,10.84
2019-04-11T12:24:17.546Z,10.74
2019-04-11T12:25:16.928Z,10.64
2019-04-11T12:26:18.295Z,10.51
2019-04-11T12:27:18.293Z,10.33
2019-04-11T12:28:17.433Z,10.28
2019-04-11T12:29:17.154Z,10.26
2019-04-11T12:30:20.817Z,10.17
2019-04-11T12:31:17.558Z,10.23
2019-04-11T12:32:17.054Z,10.42
2019-04-11T12:33:17.343Z,10.33
2019-04-11T12:34:17.089Z,10.31
2019-04-11T12:35:17.108Z,10.23
2019-04-11T12:36:17.125Z,10.31
2019-04-11T12:37:17.692Z,10.41
2019-04-11T12:38:17.161Z,10.41
2019-04-11T12:39:17.185Z,10.51
2019-04-11T12:40:17.197Z,10.57
2019-04-11T12:41:17.213Z,10.60
2019-04-11T12:42:17.234Z,10.57
2019-04-11T12:43:17.249Z,10.60
2019-04-11T12:44:17.264Z,10.72
2019-04-11T12:45:17.284Z,10.60
2019-04-11T12:46:17.304Z,10.75
2019-04-11T12:47:17.321Z,10.76
2019-04-11T12:48:17.336Z,10.99
2019-04-11T12:49:17.356Z,11.25
2019-04-11T12:50:17.378Z,11.33
2019-04-11T12:51:17.390Z,11.33
2019-04-11T12:52:17.410Z,10.93
2019-04-11T12:53:17.636Z,10.79
2019-04-11T12:54:17.449Z,10.86
2019-04-11T12:55:17.507Z,10.74
2019-04-11T12:56:17.481Z,10.59
2019-04-11T12:57:17.498Z,10.72
2019-04-11T12:58:17.517Z,10.75
2019-04-11T12:59:17.536Z,10.76
2019-04-11T13:00:17.555Z,10.93
2019-04-11T13:01:17.573Z,10.99
2019-04-11T13:02:17.592Z,11.26
2019-04-11T13:03:17.607Z,11.32
2019-04-11T13:04:17.625Z,11.15
2019-04-11T13:05:17.648Z,11.08
2019-04-11T13:06:17.664Z,10.78
2019-04-11T13:07:17.681Z,10.59
2019-04-11T13:08:17.701Z,10.49
2019-04-11T13:09:17.718Z,10.54
2019-04-11T13:10:17.740Z,10.69
2019-04-11T13:11:17.752Z,10.81
2019-04-11T13:12:17.771Z,10.90
2019-04-11T13:13:17.789Z,10.75
2019-04-11T13:14:17.813Z,10.81
2019-04-11T13:15:17.825Z,10.74